sensor_id;sensor_type;location;lat;lon;timestamp;P1;durP1;ratioP1;P2;durP2;ratioP2
73678;SDS011;61978;52.742;16.962;2022-09-20T00:02:11;4.53;;;2.90;;
73678;SDS011;61978;52.742;16.962;2022-09-20T00:04:37;6.00;;;3.05;;
73678;SDS011;61978;52.742;16.962;2022-09-20T00:07:03;8.87;;;3.00;;
73678;SDS011;61978;52.742;16.962;2022-09-20T00:09:32;4.83;;;3.00;;
73678;SDS011;61978;52.742;16.962;2022-09-20T00:11:59;4.10;;;2.50;;
73678;SDS011;61978;52.742;16.962;2022-09-20T00:14:26;4.87;;;2.67;;
73678;SDS011;61978;52.742;16.962;2022-09-20T00:16:53;3.08;;;2.77;;
73678;SDS011;61978;52.742;16.962;2022-09-20T00:19:20;4.05;;;2.75;;
73678;SDS011;61978;52.742;16.962;2022-09-20T00:21:48;3.87;;;3.00;;
73678;SDS011;61978;52.742;16.962;2022-09-20T00:24:15;5.25;;;2.67;;
73678;SDS011;61978;52.742;16.962;2022-09-20T00:26:43;4.47;;;2.70;;
73678;SDS011;61978;52.742;16.962;2022-09-20T00:29:10;7.62;;;2.58;;
73678;SDS011;61978;52.742;16.962;2022-09-20T00:31:39;8.60;;;2.60;;
73678;SDS011;61978;52.742;16.962;2022-09-20T00:34:08;6.22;;;3.20;;
73678;SDS011;61978;52.742;16.962;2022-09-20T00:36:53;6.08;;;3.15;;
73678;SDS011;61978;52.742;16.962;2022-09-20T00:39:19;5.72;;;3.30;;
73678;SDS011;61978;52.742;16.962;2022-09-20T00:41:46;5.67;;;3.30;;
73678;SDS011;61978;52.742;16.962;2022-09-20T00:44:55;9.25;;;3.15;;
73678;SDS011;61978;52.742;16.962;2022-09-20T00:46:43;5.45;;;3.22;;
73678;SDS011;61978;52.742;16.962;2022-09-20T00:49:21;5.10;;;3.65;;
73678;SDS011;61978;52.742;16.962;2022-09-20T00:51:44;5.47;;;3.60;;
73678;SDS011;61978;52.742;16.962;2022-09-20T00:54:12;7.28;;;3.80;;
73678;SDS011;61978;52.742;16.962;2022-09-20T00:56:41;3.47;;;3.17;;
73678;SDS011;61978;52.742;16.962;2022-09-20T00:59:14;6.42;;;3.90;;
73678;SDS011;61978;52.742;16.962;2022-09-20T01:01:43;6.50;;;3.83;;
73678;SDS011;61978;52.742;16.962;2022-09-20T01:04:10;6.00;;;3.98;;
73678;SDS011;61978;52.742;16.962;2022-09-20T01:06:39;8.38;;;3.85;;
73678;SDS011;61978;52.742;16.962;2022-09-20T01:09:06;6.30;;;3.70;;
73678;SDS011;61978;52.742;16.962;2022-09-20T01:11:33;5.42;;;3.20;;
73678;SDS011;61978;52.742;16.962;2022-09-20T01:14:01;6.37;;;3.77;;
73678;SDS011;61978;52.742;16.962;2022-09-20T01:16:28;6.50;;;3.22;;
73678;SDS011;61978;52.742;16.962;2022-09-20T01:18:56;6.78;;;2.60;;
73678;SDS011;61978;52.742;16.962;2022-09-20T01:21:24;7.15;;;3.00;;
73678;SDS011;61978;52.742;16.962;2022-09-20T01:23:57;4.08;;;3.00;;
73678;SDS011;61978;52.742;16.962;2022-09-20T01:28:55;3.83;;;2.77;;
73678;SDS011;61978;52.742;16.962;2022-09-20T01:31:23;6.92;;;3.40;;
73678;SDS011;61978;52.742;16.962;2022-09-20T01:34:03;6.42;;;2.83;;
73678;SDS011;61978;52.742;16.962;2022-09-20T01:36:53;8.48;;;3.50;;
73678;SDS011;61978;52.742;16.962;2022-09-20T01:42:05;3.92;;;3.22;;
73678;SDS011;61978;52.742;16.962;2022-09-20T01:44:55;5.22;;;3.30;;
73678;SDS011;61978;52.742;16.962;2022-09-20T01:50:08;3.52;;;2.83;;
73678;SDS011;61978;52.742;16.962;2022-09-20T01:57:55;9.35;;;2.87;;
73678;SDS011;61978;52.742;16.962;2022-09-20T02:00:22;6.72;;;2.95;;
73678;SDS011;61978;52.742;16.962;2022-09-20T02:05:46;4.45;;;3.05;;
73678;SDS011;61978;52.742;16.962;2022-09-20T02:19:02;6.28;;;3.27;;
73678;SDS011;61978;52.742;16.962;2022-09-20T02:37:33;13.95;;;7.10;;
73678;SDS011;61978;52.742;16.962;2022-09-20T02:42:50;13.70;;;7.97;;
73678;SDS011;61978;52.742;16.962;2022-09-20T02:45:24;18.00;;;8.83;;
73678;SDS011;61978;52.742;16.962;2022-09-20T02:47:47;18.67;;;9.65;;
73678;SDS011;61978;52.742;16.962;2022-09-20T02:50:34;14.33;;;9.08;;
73678;SDS011;61978;52.742;16.962;2022-09-20T02:53:24;16.07;;;8.58;;
73678;SDS011;61978;52.742;16.962;2022-09-20T03:00:31;9.68;;;7.62;;
73678;SDS011;61978;52.742;16.962;2022-09-20T03:08:13;10.40;;;6.45;;
73678;SDS011;61978;52.742;16.962;2022-09-20T03:24:08;10.25;;;5.20;;
73678;SDS011;61978;52.742;16.962;2022-09-20T19:28:37;7.70;;;5.37;;
73678;SDS011;61978;52.742;16.962;2022-09-20T19:31:07;10.53;;;6.35;;
73678;SDS011;61978;52.742;16.962;2022-09-20T19:33:35;13.53;;;6.40;;
73678;SDS011;61978;52.742;16.962;2022-09-20T19:36:03;13.38;;;6.45;;
73678;SDS011;61978;52.742;16.962;2022-09-20T19:38:41;9.13;;;5.92;;
73678;SDS011;61978;52.742;16.962;2022-09-20T19:51:59;8.33;;;5.53;;
73678;SDS011;61978;52.742;16.962;2022-09-20T19:54:29;8.33;;;5.75;;
73678;SDS011;61978;52.742;16.962;2022-09-20T19:56:58;7.75;;;5.30;;
73678;SDS011;61978;52.742;16.962;2022-09-20T19:59:28;10.90;;;6.60;;
73678;SDS011;61978;52.742;16.962;2022-09-20T20:01:56;10.30;;;6.10;;
73678;SDS011;61978;52.742;16.962;2022-09-20T20:04:24;8.75;;;6.50;;
73678;SDS011;61978;52.742;16.962;2022-09-20T20:12:21;8.23;;;5.60;;
73678;SDS011;61978;52.742;16.962;2022-09-20T20:14:55;9.43;;;6.10;;
73678;SDS011;61978;52.742;16.962;2022-09-20T20:26:07;9.88;;;5.97;;
73678;SDS011;61978;52.742;16.962;2022-09-20T20:28:37;11.88;;;7.03;;
73678;SDS011;61978;52.742;16.962;2022-09-20T20:31:05;12.65;;;6.53;;
73678;SDS011;61978;52.742;16.962;2022-09-20T20:33:33;12.98;;;7.97;;
73678;SDS011;61978;52.742;16.962;2022-09-20T20:36:01;9.88;;;7.12;;
73678;SDS011;61978;52.742;16.962;2022-09-20T20:38:28;12.90;;;7.70;;
73678;SDS011;61978;52.742;16.962;2022-09-20T20:40:58;12.30;;;8.23;;
73678;SDS011;61978;52.742;16.962;2022-09-20T20:43:27;9.90;;;7.33;;
73678;SDS011;61978;52.742;16.962;2022-09-20T20:45:54;10.60;;;6.83;;
73678;SDS011;61978;52.742;16.962;2022-09-20T20:48:21;11.05;;;6.92;;
73678;SDS011;61978;52.742;16.962;2022-09-20T20:50:59;12.37;;;7.72;;
73678;SDS011;61978;52.742;16.962;2022-09-20T20:53:33;9.00;;;7.25;;
73678;SDS011;61978;52.742;16.962;2022-09-20T20:56:06;9.75;;;6.58;;
73678;SDS011;61978;52.742;16.962;2022-09-20T20:58:36;9.55;;;6.95;;
73678;SDS011;61978;52.742;16.962;2022-09-20T21:01:15;11.18;;;7.72;;
73678;SDS011;61978;52.742;16.962;2022-09-20T21:03:50;11.63;;;7.37;;
73678;SDS011;61978;52.742;16.962;2022-09-20T21:06:20;13.88;;;8.20;;
73678;SDS011;61978;52.742;16.962;2022-09-20T21:08:49;13.78;;;7.40;;
73678;SDS011;61978;52.742;16.962;2022-09-20T21:11:21;11.12;;;7.35;;
73678;SDS011;61978;52.742;16.962;2022-09-20T21:13:49;10.88;;;6.92;;
73678;SDS011;61978;52.742;16.962;2022-09-20T21:16:19;8.28;;;6.15;;
73678;SDS011;61978;52.742;16.962;2022-09-20T21:18:48;12.18;;;6.70;;
73678;SDS011;61978;52.742;16.962;2022-09-20T21:23:47;10.72;;;6.22;;
73678;SDS011;61978;52.742;16.962;2022-09-20T21:26:18;10.67;;;6.07;;
73678;SDS011;61978;52.742;16.962;2022-09-20T21:28:53;12.73;;;6.53;;
73678;SDS011;61978;52.742;16.962;2022-09-20T21:31:19;7.40;;;5.92;;
73678;SDS011;61978;52.742;16.962;2022-09-20T21:33:49;11.05;;;6.10;;
73678;SDS011;61978;52.742;16.962;2022-09-20T21:36:25;11.75;;;6.33;;
73678;SDS011;61978;52.742;16.962;2022-09-20T21:38:50;6.37;;;5.15;;
73678;SDS011;61978;52.742;16.962;2022-09-20T21:41:21;7.75;;;5.17;;
73678;SDS011;61978;52.742;16.962;2022-09-20T21:43:50;7.08;;;4.75;;
73678;SDS011;61978;52.742;16.962;2022-09-20T21:46:20;5.87;;;4.95;;
73678;SDS011;61978;52.742;16.962;2022-09-20T21:48:48;7.28;;;5.15;;
73678;SDS011;61978;52.742;16.962;2022-09-20T21:51:16;6.90;;;5.45;;
73678;SDS011;61978;52.742;16.962;2022-09-20T21:53:47;8.23;;;4.50;;
73678;SDS011;61978;52.742;16.962;2022-09-20T21:56:17;6.75;;;4.17;;
73678;SDS011;61978;52.742;16.962;2022-09-20T21:58:47;5.78;;;4.08;;
73678;SDS011;61978;52.742;16.962;2022-09-20T22:01:19;5.60;;;4.62;;
73678;SDS011;61978;52.742;16.962;2022-09-20T22:03:48;5.67;;;4.47;;
73678;SDS011;61978;52.742;16.962;2022-09-20T22:06:22;6.10;;;4.85;;
73678;SDS011;61978;52.742;16.962;2022-09-20T22:08:54;5.28;;;4.53;;
73678;SDS011;61978;52.742;16.962;2022-09-20T22:11:26;5.95;;;4.17;;
73678;SDS011;61978;52.742;16.962;2022-09-20T22:13:56;9.28;;;5.12;;
73678;SDS011;61978;52.742;16.962;2022-09-20T22:16:27;9.73;;;6.15;;
73678;SDS011;61978;52.742;16.962;2022-09-20T22:18:56;9.35;;;5.87;;
73678;SDS011;61978;52.742;16.962;2022-09-20T22:21:30;10.00;;;6.62;;
73678;SDS011;61978;52.742;16.962;2022-09-20T22:23:58;16.85;;;7.28;;
73678;SDS011;61978;52.742;16.962;2022-09-20T22:26:31;8.28;;;5.60;;
73678;SDS011;61978;52.742;16.962;2022-09-20T22:29:07;8.78;;;5.80;;
73678;SDS011;61978;52.742;16.962;2022-09-20T22:31:37;9.75;;;5.22;;
73678;SDS011;61978;52.742;16.962;2022-09-20T22:34:07;7.30;;;4.67;;
73678;SDS011;61978;52.742;16.962;2022-09-20T22:36:36;7.30;;;4.62;;
73678;SDS011;61978;52.742;16.962;2022-09-20T22:39:08;8.80;;;5.17;;
73678;SDS011;61978;52.742;16.962;2022-09-20T22:41:36;7.40;;;5.00;;
73678;SDS011;61978;52.742;16.962;2022-09-20T22:44:05;8.98;;;5.05;;
73678;SDS011;61978;52.742;16.962;2022-09-20T22:46:32;5.47;;;4.22;;
73678;SDS011;61978;52.742;16.962;2022-09-20T22:48:59;7.40;;;4.72;;
73678;SDS011;61978;52.742;16.962;2022-09-20T22:51:27;5.85;;;4.40;;
73678;SDS011;61978;52.742;16.962;2022-09-20T22:54:05;11.20;;;5.00;;
73678;SDS011;61978;52.742;16.962;2022-09-20T22:56:33;7.55;;;4.78;;
73678;SDS011;61978;52.742;16.962;2022-09-20T22:59:05;7.97;;;4.75;;
73678;SDS011;61978;52.742;16.962;2022-09-20T23:01:34;7.85;;;4.28;;
73678;SDS011;61978;52.742;16.962;2022-09-20T23:04:03;10.82;;;4.55;;
73678;SDS011;61978;52.742;16.962;2022-09-20T23:06:41;8.73;;;4.67;;
73678;SDS011;61978;52.742;16.962;2022-09-20T23:09:16;4.55;;;4.10;;
73678;SDS011;61978;52.742;16.962;2022-09-20T23:11:46;4.90;;;3.90;;
73678;SDS011;61978;52.742;16.962;2022-09-20T23:14:14;8.30;;;4.05;;
73678;SDS011;61978;52.742;16.962;2022-09-20T23:16:41;5.78;;;4.05;;
73678;SDS011;61978;52.742;16.962;2022-09-20T23:19:11;6.30;;;4.10;;
73678;SDS011;61978;52.742;16.962;2022-09-20T23:21:41;7.65;;;4.42;;
73678;SDS011;61978;52.742;16.962;2022-09-20T23:24:08;8.40;;;3.90;;
73678;SDS011;61978;52.742;16.962;2022-09-20T23:26:37;5.20;;;4.00;;
73678;SDS011;61978;52.742;16.962;2022-09-20T23:29:06;5.33;;;3.33;;
73678;SDS011;61978;52.742;16.962;2022-09-20T23:31:39;7.25;;;4.10;;
73678;SDS011;61978;52.742;16.962;2022-09-20T23:34:08;6.28;;;4.58;;
73678;SDS011;61978;52.742;16.962;2022-09-20T23:36:36;6.17;;;4.20;;
73678;SDS011;61978;52.742;16.962;2022-09-20T23:39:03;6.25;;;4.15;;
73678;SDS011;61978;52.742;16.962;2022-09-20T23:41:32;4.70;;;3.72;;
73678;SDS011;61978;52.742;16.962;2022-09-20T23:44:02;9.03;;;4.53;;
73678;SDS011;61978;52.742;16.962;2022-09-20T23:46:34;5.62;;;4.50;;
73678;SDS011;61978;52.742;16.962;2022-09-20T23:49:03;4.60;;;3.60;;
73678;SDS011;61978;52.742;16.962;2022-09-20T23:51:31;5.85;;;3.87;;
73678;SDS011;61978;52.742;16.962;2022-09-20T23:53:58;5.00;;;3.60;;
73678;SDS011;61978;52.742;16.962;2022-09-20T23:56:25;6.20;;;3.37;;
73678;SDS011;61978;52.742;16.962;2022-09-20T23:58:53;4.22;;;3.35;;
